createdAt,value
2023-03-05T00:01:41.653Z,5.80
2023-03-05T00:04:16.538Z,5.80
2023-03-05T00:06:45.399Z,5.80
2023-03-05T00:09:14.781Z,5.70
2023-03-05T00:11:43.393Z,5.70
2023-03-05T00:14:13.236Z,5.90
2023-03-05T00:16:42.828Z,5.70
2023-03-05T00:19:11.730Z,5.70
2023-03-05T00:21:56.550Z,6.10
2023-03-05T00:24:25.376Z,6.20
2023-03-05T00:26:54.734Z,6.10
2023-03-05T00:29:24.801Z,5.70
2023-03-05T00:31:55.036Z,4.50
2023-03-05T00:34:33.263Z,5.70
2023-03-05T00:37:12.863Z,6.10
2023-03-05T00:39:44.335Z,6.00
2023-03-05T00:42:13.838Z,5.60
2023-03-05T00:44:43.640Z,6.20
2023-03-05T00:47:13.523Z,6.40
2023-03-05T00:49:44.006Z,7.00
2023-03-05T00:52:14.060Z,5.70
2023-03-05T00:54:48.739Z,6.30
2023-03-05T00:57:19.411Z,5.70
2023-03-05T00:59:48.357Z,5.70
2023-03-05T01:02:17.901Z,5.70
2023-03-05T01:04:47.534Z,5.70
2023-03-05T01:07:18.439Z,5.70
2023-03-05T01:09:46.896Z,5.70
2023-03-05T01:12:15.208Z,6.30
2023-03-05T01:14:43.529Z,5.60
2023-03-05T01:17:11.959Z,5.60
2023-03-05T01:19:40.582Z,5.60
2023-03-05T01:22:09.743Z,5.50
2023-03-05T01:24:39.611Z,5.60
2023-03-05T01:27:08.150Z,5.70
2023-03-05T01:29:37.882Z,5.50
2023-03-05T01:32:07.479Z,5.50
2023-03-05T01:34:37.848Z,5.80
2023-03-05T01:37:06.513Z,5.50
2023-03-05T01:39:36.356Z,5.50
2023-03-05T01:42:07.041Z,5.50
2023-03-05T01:44:36.516Z,5.50
2023-03-05T01:47:05.033Z,5.50
2023-03-05T01:49:37.649Z,5.40
2023-03-05T01:52:11.423Z,5.40
2023-03-05T01:54:43.865Z,5.40
2023-03-05T01:57:17.988Z,5.40
2023-03-05T01:59:50.410Z,5.60
2023-03-05T02:02:22.058Z,5.30
2023-03-05T02:04:54.449Z,5.30
2023-03-05T02:07:23.868Z,5.60
2023-03-05T02:09:52.220Z,5.30
2023-03-05T02:12:22.251Z,5.30
2023-03-05T02:14:59.217Z,5.30
2023-03-05T02:17:29.365Z,5.20
2023-03-05T02:20:07.028Z,5.20
2023-03-05T02:22:36.778Z,5.20
2023-03-05T02:25:19.303Z,5.20
2023-03-05T02:27:56.033Z,5.20
2023-03-05T02:30:25.821Z,5.20
2023-03-05T02:32:54.179Z,5.20
2023-03-05T02:35:23.610Z,5.20
2023-03-05T02:37:53.445Z,5.20
2023-03-05T02:40:22.150Z,5.20
2023-03-05T02:42:51.757Z,5.20
2023-03-05T02:45:20.709Z,5.10
2023-03-05T02:47:49.040Z,5.10
2023-03-05T02:50:17.968Z,5.30
2023-03-05T02:52:46.404Z,5.10
2023-03-05T02:55:18.062Z,5.00
2023-03-05T02:57:46.584Z,5.00
2023-03-05T03:00:16.524Z,5.00
2023-03-05T03:02:44.976Z,5.00
2023-03-05T03:05:13.434Z,5.00
2023-03-05T03:07:41.976Z,5.00
2023-03-05T03:10:12.498Z,5.00
2023-03-05T03:12:45.420Z,5.00
2023-03-05T03:15:17.437Z,5.00
2023-03-05T03:17:46.187Z,4.90
2023-03-05T03:20:18.109Z,4.90
2023-03-05T03:22:47.570Z,4.90
2023-03-05T03:25:18.162Z,4.90
2023-03-05T03:27:47.953Z,4.80
2023-03-05T03:30:17.550Z,4.80
2023-03-05T03:32:46.091Z,4.80
2023-03-05T03:35:15.445Z,4.80
2023-03-05T03:37:43.842Z,4.70
2023-03-05T03:40:13.509Z,4.70
2023-03-05T03:42:42.568Z,4.70
2023-03-05T03:45:14.193Z,4.70
2023-03-05T03:47:43.391Z,4.70
2023-03-05T03:50:13.434Z,4.60
2023-03-05T03:52:42.025Z,4.70
2023-03-05T03:55:12.475Z,4.70
2023-03-05T03:57:41.572Z,4.50
2023-03-05T04:00:15.236Z,4.60
2023-03-05T04:02:44.508Z,4.70
2023-03-05T04:05:13.772Z,4.70
2023-03-05T04:07:43.083Z,4.70
2023-03-05T04:10:14.171Z,4.70
2023-03-05T04:12:43.672Z,4.60
2023-03-05T04:15:13.995Z,5.50
2023-03-05T04:17:42.685Z,4.70
2023-03-05T04:20:13.216Z,6.00
2023-03-05T04:22:44.259Z,4.70
2023-03-05T04:25:13.444Z,4.50
2023-03-05T04:27:42.737Z,4.80
2023-03-05T04:30:18.014Z,4.80
2023-03-05T04:32:50.340Z,4.80
2023-03-05T04:35:20.503Z,5.50
2023-03-05T04:37:50.094Z,4.80
2023-03-05T04:40:20.736Z,4.70
2023-03-05T04:42:51.355Z,4.80
2023-03-05T04:45:22.600Z,4.70
2023-03-05T04:47:51.355Z,4.80
2023-03-05T04:50:20.754Z,5.90
2023-03-05T04:52:49.663Z,4.80
2023-03-05T04:55:21.657Z,4.80
2023-03-05T04:57:54.098Z,4.60
2023-03-05T05:00:24.903Z,4.80
2023-03-05T05:02:55.769Z,4.80
2023-03-05T05:05:27.878Z,4.90
2023-03-05T05:07:57.511Z,5.80
2023-03-05T05:10:28.223Z,4.80
2023-03-05T05:12:59.101Z,4.70
2023-03-05T05:15:36.010Z,4.60
2023-03-05T05:18:05.500Z,4.60
2023-03-05T05:20:35.493Z,4.70
2023-03-05T05:23:07.821Z,4.70
2023-03-05T05:25:39.919Z,4.70
2023-03-05T05:28:10.690Z,5.90
2023-03-05T05:30:41.273Z,5.90
2023-03-05T05:33:46.331Z,5.70
2023-03-05T05:36:20.165Z,4.70
2023-03-05T05:38:59.024Z,5.60
2023-03-05T05:41:28.533Z,4.60
2023-03-05T05:44:03.192Z,4.30
2023-03-05T05:46:35.243Z,6.00
2023-03-05T05:49:21.814Z,6.10
2023-03-05T05:51:55.033Z,4.70
2023-03-05T05:54:24.543Z,4.70
2023-03-05T06:00:04.887Z,4.70
2023-03-05T06:02:43.490Z,4.70
2023-03-05T06:05:16.094Z,4.70
2023-03-05T06:07:46.025Z,4.70
2023-03-05T06:10:15.895Z,5.90
2023-03-05T06:12:45.195Z,4.60
2023-03-05T06:15:15.034Z,4.70
2023-03-05T06:17:46.748Z,4.70
2023-03-05T06:20:16.775Z,5.20
2023-03-05T06:22:46.180Z,4.70
2023-03-05T06:25:15.040Z,4.70
2023-03-05T06:27:44.556Z,4.80
2023-03-05T06:30:16.646Z,4.70
2023-03-05T06:32:47.754Z,4.80
2023-03-05T06:35:18.993Z,4.90
2023-03-05T06:37:48.039Z,4.80
2023-03-05T06:40:20.649Z,5.00
2023-03-05T06:42:50.435Z,4.90
2023-03-05T06:45:20.292Z,5.10
2023-03-05T06:47:51.990Z,5.20
2023-03-05T06:50:23.891Z,4.80
2023-03-05T06:52:54.499Z,5.90
2023-03-05T06:55:24.973Z,4.90
2023-03-05T06:57:55.890Z,5.00
2023-03-05T07:00:29.691Z,4.90
2023-03-05T07:03:02.032Z,4.80
2023-03-05T07:05:32.618Z,5.00
2023-03-05T07:08:03.404Z,5.50
2023-03-05T07:10:33.003Z,5.40
2023-03-05T07:13:03.159Z,4.80
2023-03-05T07:15:31.862Z,4.80
2023-03-05T07:18:03.967Z,5.00
2023-03-05T07:20:33.471Z,4.80
2023-03-05T07:23:02.782Z,5.80
2023-03-05T07:25:31.487Z,4.80
2023-03-05T07:28:00.582Z,5.30
2023-03-05T07:30:29.451Z,4.50
2023-03-05T07:32:59.437Z,5.40
2023-03-05T07:35:38.472Z,4.80
2023-03-05T07:38:07.734Z,4.70
2023-03-05T07:40:39.913Z,5.20
2023-03-05T07:43:09.060Z,4.80
2023-03-05T07:45:41.101Z,5.30
2023-03-05T07:48:13.244Z,4.90
2023-03-05T07:50:43.521Z,4.90
2023-03-05T07:53:12.819Z,4.90
2023-03-05T07:55:51.734Z,4.90
2023-03-05T07:58:20.891Z,5.10
2023-03-05T08:00:50.802Z,5.40
2023-03-05T08:03:20.520Z,6.20
2023-03-05T08:05:50.836Z,5.10
2023-03-05T08:08:23.173Z,5.40
2023-03-05T08:10:51.983Z,5.20
2023-03-05T08:13:20.989Z,5.50
2023-03-05T08:15:50.606Z,5.30
2023-03-05T08:18:19.841Z,5.30
2023-03-05T08:20:48.462Z,5.20
2023-03-05T08:23:18.563Z,5.80
2023-03-05T08:25:47.050Z,6.10
2023-03-05T08:28:16.952Z,5.40
2023-03-05T08:30:45.512Z,5.60
2023-03-05T08:33:14.590Z,5.50
2023-03-05T08:35:43.023Z,6.10
2023-03-05T08:38:11.741Z,5.50
2023-03-05T08:40:43.417Z,5.70
2023-03-05T08:43:12.261Z,5.60
2023-03-05T08:45:40.879Z,5.50
2023-03-05T08:48:09.201Z,5.40
2023-03-05T08:50:39.071Z,5.50
2023-03-05T08:53:08.485Z,5.50
2023-03-05T08:55:37.582Z,5.50
2023-03-05T08:58:07.378Z,5.40
2023-03-05T09:00:35.796Z,5.50
2023-03-05T09:03:04.183Z,5.50
2023-03-05T09:05:32.526Z,5.40
2023-03-05T09:08:00.935Z,5.50
2023-03-05T09:10:29.433Z,5.50
2023-03-05T09:12:57.738Z,5.50
2023-03-05T09:15:27.486Z,5.60
2023-03-05T09:17:55.835Z,5.60
2023-03-05T09:20:24.264Z,6.00
2023-03-05T09:22:52.663Z,5.70
2023-03-05T09:25:21.405Z,5.70
2023-03-05T09:27:49.802Z,5.70
2023-03-05T09:30:18.755Z,5.80
2023-03-05T09:32:48.509Z,5.80
2023-03-05T09:35:16.860Z,5.90
2023-03-05T09:37:45.256Z,6.50
2023-03-05T09:40:19.301Z,6.00
2023-03-05T09:43:04.887Z,5.90
2023-03-05T09:45:41.988Z,6.30
2023-03-05T09:48:20.261Z,6.10
2023-03-05T09:50:52.577Z,6.20
2023-03-05T09:53:32.430Z,6.20
2023-03-05T09:56:06.206Z,6.20
2023-03-05T09:58:38.711Z,6.20
2023-03-05T10:01:12.091Z,6.30
2023-03-05T10:03:54.746Z,6.10
2023-03-05T10:06:25.635Z,6.30
2023-03-05T10:08:58.124Z,6.20
2023-03-05T10:11:41.470Z,6.20
2023-03-05T10:14:16.600Z,6.20
2023-03-05T10:17:19.985Z,6.50
2023-03-05T10:20:31.693Z,6.20
2023-03-05T10:23:24.745Z,6.20
2023-03-05T10:26:12.596Z,6.40
2023-03-05T10:28:52.279Z,6.20
2023-03-05T10:31:47.762Z,6.20
2023-03-05T10:34:42.640Z,6.20
2023-03-05T10:37:42.144Z,6.70
2023-03-05T10:40:24.234Z,6.70
2023-03-05T10:43:02.446Z,6.30
2023-03-05T10:45:36.182Z,6.30
2023-03-05T10:48:13.628Z,6.30
2023-03-05T10:50:48.718Z,6.30
2023-03-05T10:53:25.748Z,6.30
2023-03-05T10:55:56.518Z,6.30
2023-03-05T10:58:26.310Z,6.20
2023-03-05T11:01:05.827Z,6.20
2023-03-05T11:03:57.270Z,6.20
2023-03-05T11:06:35.437Z,6.20
2023-03-05T11:09:22.134Z,6.10
2023-03-05T11:12:16.099Z,6.10
2023-03-05T11:14:48.933Z,6.10
2023-03-05T11:17:31.777Z,6.10
2023-03-05T11:20:35.375Z,6.10
2023-03-05T11:23:07.919Z,6.10
2023-03-05T11:26:01.134Z,6.10
2023-03-05T11:28:34.749Z,6.10
2023-03-05T11:31:09.468Z,6.10
2023-03-05T11:33:38.978Z,6.10
2023-03-05T11:36:25.476Z,6.20
2023-03-05T11:38:59.637Z,6.20
2023-03-05T11:41:38.315Z,6.20
2023-03-05T11:44:15.500Z,6.30
2023-03-05T11:46:47.925Z,6.30
2023-03-05T11:49:21.321Z,6.30
2023-03-05T11:51:59.622Z,6.30
2023-03-05T11:54:36.476Z,6.30
2023-03-05T11:57:11.306Z,6.40
2023-03-05T11:59:40.795Z,6.40
2023-03-05T12:02:20.782Z,6.50
2023-03-05T12:04:50.954Z,6.60
2023-03-05T12:07:26.335Z,6.60
2023-03-05T12:09:56.486Z,6.70
2023-03-05T12:18:48.563Z,6.80
2023-03-05T12:21:26.996Z,8.30
2023-03-05T12:24:01.464Z,6.90
2023-03-05T12:27:07.303Z,7.20
2023-03-05T12:29:47.423Z,7.00
2023-03-05T12:32:58.936Z,6.90
2023-03-05T12:35:31.523Z,7.00
2023-03-05T12:38:31.265Z,7.00
2023-03-05T12:41:45.345Z,7.00
2023-03-05T12:44:24.129Z,7.00
2023-03-05T12:47:23.550Z,7.00
2023-03-05T12:49:52.510Z,7.00
2023-03-05T12:52:28.416Z,7.20
2023-03-05T12:55:16.950Z,7.00
2023-03-05T12:57:47.263Z,6.90
2023-03-05T13:00:21.718Z,6.90
2023-03-05T13:02:58.656Z,7.00
2023-03-05T13:05:31.185Z,6.90
2023-03-05T13:08:15.915Z,7.00
2023-03-05T13:10:51.979Z,6.90
2023-03-05T13:13:21.668Z,6.90
2023-03-05T13:15:51.962Z,6.90
2023-03-05T13:18:25.339Z,6.90
2023-03-05T13:21:04.549Z,6.90
2023-03-05T13:23:34.194Z,6.90
2023-03-05T13:26:11.014Z,6.90
2023-03-05T13:28:41.880Z,6.90
2023-03-05T13:31:17.720Z,6.90
2023-03-05T13:33:55.196Z,6.90
2023-03-05T13:36:26.491Z,6.90
2023-03-05T13:38:55.415Z,7.20
2023-03-05T13:41:25.622Z,6.90
2023-03-05T13:43:56.598Z,7.10
2023-03-05T13:46:31.672Z,7.10
2023-03-05T13:49:21.982Z,6.90
2023-03-05T13:51:52.782Z,6.90
2023-03-05T13:54:23.057Z,6.80
2023-03-05T13:56:54.837Z,6.80
2023-03-05T13:59:25.010Z,6.80
2023-03-05T14:01:54.674Z,7.00
2023-03-05T14:04:27.987Z,6.90
2023-03-05T14:07:00.397Z,6.80
2023-03-05T14:09:31.544Z,6.80
2023-03-05T14:12:03.017Z,7.00
2023-03-05T14:14:35.239Z,6.80
2023-03-05T14:17:32.364Z,6.70
2023-03-05T14:20:25.156Z,6.80
2023-03-05T14:22:56.843Z,6.80
2023-03-05T14:25:34.030Z,6.80
2023-03-05T14:28:03.544Z,6.70
2023-03-05T14:30:32.564Z,6.70
2023-03-05T14:33:02.038Z,7.40
2023-03-05T14:35:32.114Z,6.70
2023-03-05T14:38:01.746Z,6.60
2023-03-05T14:40:32.307Z,6.60
2023-03-05T14:43:02.667Z,6.60
2023-03-05T14:45:34.005Z,6.60
2023-03-05T14:48:04.640Z,6.60
2023-03-05T14:50:37.709Z,6.60
2023-03-05T14:53:11.055Z,6.60
2023-03-05T14:55:39.865Z,6.70
2023-03-05T14:58:14.948Z,6.60
2023-03-05T15:00:44.646Z,6.60
2023-03-05T15:03:14.161Z,6.60
2023-03-05T15:05:45.282Z,6.60
2023-03-05T15:08:15.987Z,6.60
2023-03-05T15:10:44.889Z,6.60
2023-03-05T15:13:15.811Z,6.60
2023-03-05T15:15:45.428Z,6.60
2023-03-05T15:18:16.123Z,6.60
2023-03-05T15:20:48.807Z,6.70
2023-03-05T15:23:18.481Z,6.50
2023-03-05T15:25:46.921Z,6.60
2023-03-05T15:28:15.346Z,6.50
2023-03-05T15:30:47.343Z,6.50
2023-03-05T15:33:17.700Z,6.50
2023-03-05T15:35:47.616Z,6.60
2023-03-05T15:38:16.366Z,6.60
2023-03-05T15:40:46.079Z,6.80
2023-03-05T15:43:15.241Z,6.70
2023-03-05T15:45:43.730Z,6.50
2023-03-05T15:48:12.705Z,7.00
2023-03-05T15:50:42.804Z,6.50
2023-03-05T15:53:17.944Z,6.50
2023-03-05T15:55:47.013Z,6.70
2023-03-05T15:58:17.713Z,6.40
2023-03-05T16:00:47.551Z,6.40
2023-03-05T16:03:16.139Z,6.40
2023-03-05T16:05:44.632Z,6.40
2023-03-05T16:08:14.748Z,6.40
2023-03-05T16:10:43.213Z,6.40
2023-03-05T16:13:15.204Z,6.30
2023-03-05T16:15:44.650Z,6.30
2023-03-05T16:18:16.728Z,6.60
2023-03-05T16:20:45.264Z,6.30
2023-03-05T16:23:15.232Z,6.30
2023-03-05T16:25:43.639Z,6.20
2023-03-05T16:28:12.065Z,6.20
2023-03-05T16:30:40.916Z,6.40
2023-03-05T16:33:09.765Z,6.20
2023-03-05T16:35:38.252Z,6.20
2023-03-05T16:38:07.061Z,6.20
2023-03-05T16:41:06.288Z,6.40
2023-03-05T16:43:27.602Z,6.20
2023-03-05T16:45:56.027Z,6.20
2023-03-05T16:48:24.350Z,6.20
2023-03-05T16:50:52.764Z,6.20
2023-03-05T16:53:21.180Z,6.20
2023-03-05T16:55:50.903Z,6.50
2023-03-05T16:58:19.291Z,6.20
2023-03-05T17:00:48.933Z,6.10
2023-03-05T17:03:17.718Z,6.10
2023-03-05T17:05:46.547Z,6.10
2023-03-05T17:08:15.066Z,6.10
2023-03-05T17:10:44.501Z,6.10
2023-03-05T17:13:14.280Z,6.10
2023-03-05T17:18:12.422Z,6.10
2023-03-05T17:20:40.861Z,6.10
2023-03-05T17:23:09.261Z,6.10
2023-03-05T17:25:38.663Z,6.10
2023-03-05T17:28:07.311Z,6.10
2023-03-05T17:30:37.490Z,6.10
2023-03-05T17:33:06.885Z,6.10
2023-03-05T17:35:35.995Z,6.10
2023-03-05T17:38:04.466Z,6.10
2023-03-05T17:40:33.336Z,6.30
2023-03-05T17:43:01.991Z,6.10
2023-03-05T17:45:30.560Z,6.30
2023-03-05T17:48:00.249Z,6.10
2023-03-05T17:50:28.647Z,6.10
2023-03-05T17:52:57.312Z,6.10
2023-03-05T17:55:25.894Z,6.10
2023-03-05T17:57:54.582Z,6.10
2023-03-05T18:00:25.507Z,6.10
2023-03-05T18:02:55.377Z,6.10
2023-03-05T18:05:27.069Z,6.10
2023-03-05T18:07:55.979Z,6.10
2023-03-05T18:10:27.692Z,6.10
2023-03-05T18:12:56.861Z,6.10
2023-03-05T18:15:27.726Z,6.10
2023-03-05T18:17:56.566Z,6.10
2023-03-05T18:20:30.624Z,6.10
2023-03-05T18:23:00.873Z,6.10
2023-03-05T18:25:31.796Z,6.10
2023-03-05T18:28:00.708Z,6.10
2023-03-05T18:30:30.220Z,6.10
2023-03-05T18:32:59.047Z,6.10
2023-03-05T18:35:30.109Z,6.10
2023-03-05T18:37:58.954Z,6.10
2023-03-05T18:40:29.981Z,6.10
2023-03-05T18:43:01.104Z,6.10
2023-03-05T18:45:31.135Z,6.10
2023-03-05T18:47:59.534Z,6.00
2023-03-05T18:50:29.902Z,6.00
2023-03-05T18:52:58.295Z,6.00
2023-03-05T18:55:29.623Z,6.00
2023-03-05T18:57:58.278Z,6.00
2023-03-05T19:00:30.534Z,6.00
2023-03-05T19:02:59.307Z,6.00
2023-03-05T19:05:29.377Z,6.00
2023-03-05T19:07:58.449Z,6.00
2023-03-05T19:10:26.850Z,6.00
2023-03-05T19:13:05.607Z,6.00
2023-03-05T19:15:34.582Z,6.00
2023-03-05T19:18:02.983Z,6.10
2023-03-05T19:20:32.750Z,6.00
2023-03-05T19:23:01.018Z,6.00
2023-03-05T19:25:29.407Z,6.00
2023-03-05T19:27:57.724Z,6.00
2023-03-05T19:30:26.051Z,5.90
2023-03-05T19:32:54.415Z,6.00
2023-03-05T19:35:23.014Z,5.90
2023-03-05T19:37:52.717Z,5.90
2023-03-05T19:40:21.508Z,5.90
2023-03-05T19:42:49.807Z,5.90
2023-03-05T19:45:18.344Z,5.90
2023-03-05T19:47:46.713Z,5.90
2023-03-05T19:50:16.631Z,5.90
2023-03-05T19:52:44.923Z,5.90
2023-03-05T19:55:14.921Z,5.90
2023-03-05T19:57:43.224Z,5.90
2023-03-05T20:00:13.269Z,5.90
2023-03-05T20:02:41.627Z,5.90
2023-03-05T20:05:10.752Z,5.90
2023-03-05T20:07:39.184Z,5.90
2023-03-05T20:10:08.899Z,5.90
2023-03-05T20:12:39.404Z,5.90
2023-03-05T20:15:49.111Z,6.00
2023-03-05T20:18:20.739Z,6.00
2023-03-05T20:20:54.440Z,5.90
2023-03-05T20:23:32.376Z,6.10
2023-03-05T20:29:18.040Z,6.00
2023-03-05T20:31:50.086Z,5.80
2023-03-05T20:34:23.791Z,6.00
2023-03-05T20:37:03.731Z,6.00
2023-03-05T21:02:40.060Z,5.90
2023-03-05T21:05:12.661Z,5.90
2023-03-05T21:07:41.575Z,5.80
2023-03-05T21:10:12.315Z,6.40
2023-03-05T21:12:41.235Z,5.80
2023-03-05T21:15:11.511Z,5.80
2023-03-05T21:17:41.989Z,5.80
2023-03-05T21:20:14.728Z,6.20
2023-03-05T21:22:43.425Z,5.80
2023-03-05T21:25:20.716Z,6.40
2023-03-05T21:27:51.718Z,6.00
2023-03-05T21:30:21.249Z,5.80
2023-03-05T21:32:51.585Z,5.80
2023-03-05T21:35:23.079Z,6.20
2023-03-05T21:37:52.665Z,5.80
2023-03-05T21:40:22.588Z,6.10
2023-03-05T21:42:52.964Z,6.10
2023-03-05T21:45:25.613Z,5.80
2023-03-05T21:47:56.349Z,6.20
2023-03-05T21:50:27.160Z,5.30
2023-03-05T21:52:56.596Z,5.90
2023-03-05T21:55:32.397Z,5.90
2023-03-05T21:58:01.810Z,6.10
2023-03-05T22:00:31.162Z,5.60
2023-03-05T22:03:04.130Z,5.60
2023-03-05T22:05:33.795Z,5.60
2023-03-05T22:08:03.760Z,5.60
2023-03-05T22:10:33.871Z,6.50
2023-03-05T22:13:12.662Z,5.90
2023-03-05T22:22:11.779Z,5.70
2023-03-05T22:25:07.855Z,5.60
2023-03-05T22:28:11.005Z,5.10
2023-03-05T22:31:29.539Z,5.80
2023-03-05T22:35:02.366Z,5.60
2023-03-05T22:47:42.037Z,5.60
2023-03-05T22:56:50.800Z,5.60
2023-03-05T22:59:52.764Z,5.30
2023-03-05T23:02:27.266Z,5.20
2023-03-05T23:05:15.555Z,6.40
2023-03-05T23:07:50.185Z,5.70
2023-03-05T23:10:27.250Z,6.60
2023-03-05T23:13:08.053Z,5.40
2023-03-05T23:16:19.090Z,5.60
2023-03-05T23:19:12.204Z,5.20
2023-03-05T23:21:45.261Z,6.90
2023-03-05T23:24:16.397Z,5.60
2023-03-05T23:26:45.787Z,5.40
2023-03-05T23:35:54.449Z,5.90
2023-03-05T23:38:26.084Z,6.10
2023-03-05T23:41:01.202Z,5.60
2023-03-05T23:43:31.684Z,5.70
2023-03-05T23:46:13.643Z,5.80
2023-03-05T23:49:11.582Z,5.80
2023-03-05T23:51:40.876Z,5.70
2023-03-05T23:54:10.061Z,5.60
2023-03-05T23:56:41.186Z,6.80
2023-03-05T23:59:31.588Z,5.60
